Aérodrome :







RETROUVEZ-NOUS SUR...

 
LOGIN :

S'inscrire | Disclaimer

   EN    FR    IT 

 









Légende :    VFR   VFR Marginal   IFR   IFR Intensif   IFR Très Intensif
Visi : 
Plafond : 
>= 8 km
>= 3000ft
5 à 8 km
1000 à 3000 ft
1500m à 5 km
500 à 1000 ft
800 à 1500m
200 à 500 ft
< 800m
< 200 ft
Symboles :   Orages  Brouillard  Fortes neiges  Fortes précipitations  Vent > 20 kt






- Altitude de l'aérodrome : 59 ft
- Code IATA : SDQ


MDSD - Las Americas Int.

DERNIER METAR :
  • 251600Z 14008KT 9999 FEW018 32/24 Q1015 NOSIG

METARs EXPIRÉS :
  • 251500Z 11007KT 9999 FEW018 31/25 Q1016 NOSIG
  • 251400Z 10005KT 9999 FEW018 30/24 Q1016 NOSOG

TAF TAF MDSD
Valide du 25 à 12h jusqu'au 26 à 12h UTC


251000Z 2512/2612 04006KT 9999 FEW020 SCT300
BECMG 2515/2517 14012KT
PROB30 2518/2523 8000 SHRA FEW014CB BKN016
FIR MDCS / Amérique du Nord



MET'MAP, la Météo Aéronautique d'un coup d'oeil ! - Copyright ORBIFLY Décembre 2007 - Disclaimer

ORBIFLY MET'MAP TEAM :

Programmation & Développement : Alexandra Zaïnal
Sur une idée originale de : Baudouin d'Aumeries
Assistance à la programmation : Marc-Olivier Méhu
Soutien technique & logistique : Manuel Goepfert

Contact : metmap@orbifly.com




SOURCES & CREDITS :

   NOAA